Histon, United Kingdom
Current Conditions -  °F | °C
As of 10:20 AM on Thursday 29 Jan 2015 (Local Time) from EGSC Reporting Station
Few Clouds Few Clouds  
Wind Chill: 29°   Ceiling: Unl
Heat Index: 39°   Visibility: 6mi
Dew Point: 32°   Wind: 21mph
Humidity: 75%   Direction: 220°SW
Pressure: 29.03"   Gusts: NA
Location:  52.25°N, 0.11°E
Report Text: EGSC 291020Z 22018KT 180V240 9999 FEW019 04/00 Q0983
Loading
Personal Weather Stations






























Interactive Weather Map New forecast layout! Learn more

10-Day Weather Forecast

Advertisements
Track Severe Weather on mobile